KAPA/APA METAR and TAF weather

Enter ICAO airport designator
Station Type Date Time Source
KAPA METAR 2019/06/19 02:53 UTC NOAA

KAPA 190253Z 21006KT 10SM FEW015 SCT090 BKN120 14/11 A3011 RMK AO2 RAE00B21E31 SLP150 P0000 60000 T01390106 51012


Station Type Date Time Source
KAPA Decoded METAR 2019/06/19 02:53 UTC NOAA

DENVER CENTENNIAL AIRPORT, CO, United States (KAPA) 39-34N 104-51W 1775M
Jun 18, 2019 - 10:53 PM EDT / 2019.06.19 0253 UTC
Wind: from the SSW (210 degrees) at 7 MPH (6 KT):0
Visibility: 10 mile(s):0
Sky conditions: mostly cloudy
Precipitation last hour: A trace
Temperature: 57.0 F (13.9 C)
Dew Point: 51.1 F (10.6 C)
Relative Humidity: 80%
Pressure (altimeter): 30.11 in. Hg (1019 hPa)
Pressure tendency: 0.04 inches (1.2 hPa) higher than three hours ago
ob: KAPA 190253Z 21006KT 10SM FEW015 SCT090 BKN120 14/11 A3011 RMK AO2 RAE00B21E31 SLP150 P0000 60000 T01390106 51012
cycle: 3

Station Type Date Time Source
KAPA TAF 2019/06/19 01:58 UTC NOAA

TAF
AMD KAPA 190056Z 1901/1924 07007KT P6SM VCTS SCT050CB BKN080
FM190400 19006KT P6SM VCSH FEW060 BKN110
FM190700 23006KT P6SM SCT120 SCT220
FM191800 30010KT P6SM FEW110 SCT200

Example: see airport list